Aviation Digital Data Service (ADDS)

Output produced by METARs form (1130 UTC 25 June 2019)
found at http://www.aviationweather.gov/metar/data/
 
Forecast for: EPWA (WARSAW/OKECIE , PL)
Text: TAF EPWA 251130Z 2512/2612 13010KT CAVOK
Forecast period: 1200 UTC 25 June 2019 to 0200 UTC 26 June 2019
Forecast type: FROM: standard forecast or significant change
Winds: from the SE (130 degrees) at 12 MPH (10 knots; 5.1 m/s)
Visibility: 6 or more miles 10+ km)
Ceiling: unknown
Clouds: missing
Weather: NSW  (no significant weather)
Text: BECMG 2602/2605 19008KT
Forecast period: 0200 to 1100 UTC 26 June 2019
Forecast type: BECOMING: Conditions expected to become as follows by 0500 UTC 26 June 2019
Winds: from the S (190 degrees) at 9 MPH (8 knots; 4.1 m/s)
Visibility: 6 or more miles 10+ km)
Ceiling: unknown
Clouds: missing
Weather: NSW  (no significant weather)
Text: BECMG 2611/2612 25012KT
Forecast period: 1100 to 1200 UTC 26 June 2019
Forecast type: BECOMING: Conditions expected to become as follows by 1200 UTC 26 June 2019
Winds: from the WSW (250 degrees) at 14 MPH (12 knots; 6.2 m/s)
Visibility: 6 or more miles 10+ km)
Ceiling: unknown
Clouds: missing
Weather: NSW  (no significant weather)